Airfield :
LOGIN :

Register | Disclaimer

   EN    FR    IT 

 










Legend :    VFR   Marginal VFR   IFR   Intensive IFR   Very Intensive IFR
Visi :
Ceiling :
>= 8 km
>= 3000ft
5 to 8 km
1000 to 3000 ft
1500m to 5 km
500 to 1000 ft
800 to 1500m
200 to 500 ft
< 800m
< 200 ft
Symbols :   Thunderstorms  Fog  Heavy snow  Heavy precipitations  Wind > 20 kt
SIGMETs :     Misc.  Thunderstorms  Icing  Turbulence  Mountain Waves  Volcanic Ashes






- Airport Elevation : 319 ft


EIME - Casement Air Base

CURRENT METAR :
  • 211000Z 22010KT 190V250 9999 FEW013 SCT015 BKN040 16/12 Q1010

EXPIRED METARs :
  • 210900Z 22011KT 9999 FEW013 BKN048 14/12 Q1010
  • 210800Z 21010KT 9999 FEW013 BKN045 13/12 Q1010
  • 210700Z 23010KT 9999 FEW010 BKN049 BKN140 13/11 Q1010
  • 210600Z 23009KT 9999 FEW010 SCT049 BKN150 12/11 Q1009
  • 210500Z 24011KT 9999 FEW010 BKN048 BKN180 11/10 Q1009

TAF TAF EIME
Valid from the 21 at 09:00 until the 21 at 18:00 UTC


210800Z 2109/2118 22010KT 9999 FEW015 BKN040
BECMG 2116/2118 19008KT



MET'MAP, your aeronautical weather chart ! - Copyright ORBIFLY December 2007 - Disclaimer

ORBIFLY MET'MAP TEAM :

Programming & Development : Alexandra Zaïnal
Original concept : Baudouin d'Aumeries
Technical & hardware support : Manuel Goepfert
Assistance : Marc-Olivier Méhu




SOURCES & CREDITS :

   NOAA